sensor_id;sensor_type;location;lat;lon;timestamp;pressure;altitude;pressure_sealevel;temperature
68510;BMP180;55512;50.102;19.958;2024-02-04T00:01:32;98562.00;;;6.60
68510;BMP180;55512;50.102;19.958;2024-02-04T00:04:52;98551.80;;;6.70
68510;BMP180;55512;50.102;19.958;2024-02-04T00:11:02;98553.80;;;6.70
68510;BMP180;55512;50.102;19.958;2024-02-04T00:17:51;98552.80;;;6.70
68510;BMP180;55512;50.102;19.958;2024-02-04T00:20:49;98539.00;;;6.62
68510;BMP180;55512;50.102;19.958;2024-02-04T00:34:30;98517.40;;;6.60
68510;BMP180;55512;50.102;19.958;2024-02-04T00:38:00;98520.80;;;6.60
68510;BMP180;55512;50.102;19.958;2024-02-04T00:41:06;98518.20;;;6.60
68510;BMP180;55512;50.102;19.958;2024-02-04T00:43:40;98509.40;;;6.60
68510;BMP180;55512;50.102;19.958;2024-02-04T00:46:09;98518.00;;;6.60
68510;BMP180;55512;50.102;19.958;2024-02-04T00:48:38;98534.80;;;6.60
68510;BMP180;55512;50.102;19.958;2024-02-04T00:51:06;98523.80;;;6.60
68510;BMP180;55512;50.102;19.958;2024-02-04T00:53:32;98525.00;;;6.60
68510;BMP180;55512;50.102;19.958;2024-02-04T00:57:12;98522.40;;;6.60
68510;BMP180;55512;50.102;19.958;2024-02-04T01:17:53;98539.00;;;6.40
68510;BMP180;55512;50.102;19.958;2024-02-04T01:23:34;98534.20;;;6.34
68510;BMP180;55512;50.102;19.958;2024-02-04T01:26:03;98537.20;;;6.30
68510;BMP180;55512;50.102;19.958;2024-02-04T01:28:42;98548.00;;;6.30
68510;BMP180;55512;50.102;19.958;2024-02-04T01:33:51;98530.20;;;6.22
68510;BMP180;55512;50.102;19.958;2024-02-04T01:36:22;98524.20;;;6.20
68510;BMP180;55512;50.102;19.958;2024-02-04T01:43:00;98522.20;;;6.10
68510;BMP180;55512;50.102;19.958;2024-02-04T01:46:10;98520.60;;;6.10
68510;BMP180;55512;50.102;19.958;2024-02-04T01:49:08;98517.20;;;6.10
68510;BMP180;55512;50.102;19.958;2024-02-04T01:53:20;98515.80;;;6.10
68510;BMP180;55512;50.102;19.958;2024-02-04T01:56:06;98504.60;;;6.10
68510;BMP180;55512;50.102;19.958;2024-02-04T01:58:35;98504.80;;;6.10
68510;BMP180;55512;50.102;19.958;2024-02-04T02:01:10;98497.00;;;6.10
68510;BMP180;55512;50.102;19.958;2024-02-04T02:03:39;98492.80;;;6.10
68510;BMP180;55512;50.102;19.958;2024-02-04T02:06:08;98488.80;;;6.10
68510;BMP180;55512;50.102;19.958;2024-02-04T02:08:45;98493.20;;;6.10
68510;BMP180;55512;50.102;19.958;2024-02-04T02:11:40;98491.40;;;6.06
68510;BMP180;55512;50.102;19.958;2024-02-04T02:14:21;98490.20;;;6.00
68510;BMP180;55512;50.102;19.958;2024-02-04T02:16:59;98487.60;;;6.00
68510;BMP180;55512;50.102;19.958;2024-02-04T02:19:52;98483.80;;;6.00
68510;BMP180;55512;50.102;19.958;2024-02-04T02:23:07;98485.20;;;6.00
68510;BMP180;55512;50.102;19.958;2024-02-04T02:25:40;98481.60;;;6.00
68510;BMP180;55512;50.102;19.958;2024-02-04T02:28:17;98485.60;;;6.00
68510;BMP180;55512;50.102;19.958;2024-02-04T02:31:09;98475.20;;;5.94
68510;BMP180;55512;50.102;19.958;2024-02-04T02:34:30;98507.20;;;5.90
68510;BMP180;55512;50.102;19.958;2024-02-04T02:38:07;98482.00;;;5.90
68510;BMP180;55512;50.102;19.958;2024-02-04T02:42:08;98482.40;;;5.86
68510;BMP180;55512;50.102;19.958;2024-02-04T02:45:35;98498.00;;;5.90
68510;BMP180;55512;50.102;19.958;2024-02-04T02:48:40;98487.60;;;5.82
68510;BMP180;55512;50.102;19.958;2024-02-04T02:51:59;98494.00;;;5.90
68510;BMP180;55512;50.102;19.958;2024-02-04T03:08:46;98514.80;;;5.80
68510;BMP180;55512;50.102;19.958;2024-02-04T03:11:40;98540.60;;;5.76
68510;BMP180;55512;50.102;19.958;2024-02-04T03:14:17;98521.20;;;5.70
68510;BMP180;55512;50.102;19.958;2024-02-04T03:16:44;98525.60;;;5.70
68510;BMP180;55512;50.102;19.958;2024-02-04T03:19:26;98535.60;;;5.60
68510;BMP180;55512;50.102;19.958;2024-02-04T03:21:51;98523.00;;;5.60
68510;BMP180;55512;50.102;19.958;2024-02-04T03:24:26;98523.60;;;5.60
68510;BMP180;55512;50.102;19.958;2024-02-04T03:26:52;98522.20;;;5.58
68510;BMP180;55512;50.102;19.958;2024-02-04T03:29:21;98501.20;;;5.54
68510;BMP180;55512;50.102;19.958;2024-02-04T03:31:47;98497.00;;;5.50
68510;BMP180;55512;50.102;19.958;2024-02-04T03:34:15;98493.20;;;5.50
68510;BMP180;55512;50.102;19.958;2024-02-04T03:37:29;98488.80;;;5.50
68510;BMP180;55512;50.102;19.958;2024-02-04T03:40:56;98485.20;;;5.50
68510;BMP180;55512;50.102;19.958;2024-02-04T03:48:37;98491.00;;;5.40
68510;BMP180;55512;50.102;19.958;2024-02-04T03:58:23;98488.40;;;5.40
68510;BMP180;55512;50.102;19.958;2024-02-04T04:05:03;98479.40;;;5.40
68510;BMP180;55512;50.102;19.958;2024-02-04T04:08:34;98481.80;;;5.34
68510;BMP180;55512;50.102;19.958;2024-02-04T04:14:55;98479.80;;;5.30
68510;BMP180;55512;50.102;19.958;2024-02-04T04:18:09;98485.60;;;5.40
68510;BMP180;55512;50.102;19.958;2024-02-04T04:20:52;98487.80;;;5.34
68510;BMP180;55512;50.102;19.958;2024-02-04T04:30:40;98494.20;;;5.40
68510;BMP180;55512;50.102;19.958;2024-02-04T04:38:03;98487.20;;;5.42
68510;BMP180;55512;50.102;19.958;2024-02-04T04:54:58;98491.80;;;5.42
68510;BMP180;55512;50.102;19.958;2024-02-04T04:58:06;98471.20;;;5.48
68510;BMP180;55512;50.102;19.958;2024-02-04T05:01:22;98477.60;;;5.50
68510;BMP180;55512;50.102;19.958;2024-02-04T05:04:17;98479.80;;;5.50
68510;BMP180;55512;50.102;19.958;2024-02-04T05:07:54;98476.40;;;5.60
68510;BMP180;55512;50.102;19.958;2024-02-04T05:11:11;98486.60;;;5.50
68510;BMP180;55512;50.102;19.958;2024-02-04T05:14:17;98480.60;;;5.60
68510;BMP180;55512;50.102;19.958;2024-02-04T05:21:19;98488.80;;;5.70
68510;BMP180;55512;50.102;19.958;2024-02-04T05:28:14;98506.40;;;5.70
68510;BMP180;55512;50.102;19.958;2024-02-04T05:39:11;98488.80;;;5.40
68510;BMP180;55512;50.102;19.958;2024-02-04T05:42:22;98484.40;;;5.40
68510;BMP180;55512;50.102;19.958;2024-02-04T05:45:37;98484.00;;;5.40
68510;BMP180;55512;50.102;19.958;2024-02-04T05:53:12;98504.20;;;5.40
68510;BMP180;55512;50.102;19.958;2024-02-04T05:59:58;98536.40;;;5.26
68510;BMP180;55512;50.102;19.958;2024-02-04T06:02:46;98494.80;;;5.10
68510;BMP180;55512;50.102;19.958;2024-02-04T06:13:37;98487.40;;;4.70
68510;BMP180;55512;50.102;19.958;2024-02-04T06:21:10;98505.20;;;4.60
68510;BMP180;55512;50.102;19.958;2024-02-04T06:30:19;98483.80;;;4.80
68510;BMP180;55512;50.102;19.958;2024-02-04T06:40:10;98499.00;;;5.20
68510;BMP180;55512;50.102;19.958;2024-02-04T06:46:23;98498.00;;;5.20
68510;BMP180;55512;50.102;19.958;2024-02-04T06:56:48;98511.60;;;5.20
68510;BMP180;55512;50.102;19.958;2024-02-04T07:00:14;98518.60;;;5.12
68510;BMP180;55512;50.102;19.958;2024-02-04T07:03:40;98521.80;;;5.10
68510;BMP180;55512;50.102;19.958;2024-02-04T07:07:04;98507.40;;;5.10
68510;BMP180;55512;50.102;19.958;2024-02-04T07:10:01;98529.40;;;5.10
68510;BMP180;55512;50.102;19.958;2024-02-04T07:12:43;98495.40;;;5.20
68510;BMP180;55512;50.102;19.958;2024-02-04T07:15:47;98497.20;;;5.20
68510;BMP180;55512;50.102;19.958;2024-02-04T07:21:20;98474.80;;;5.30
68510;BMP180;55512;50.102;19.958;2024-02-04T07:24:35;98487.20;;;5.30
68510;BMP180;55512;50.102;19.958;2024-02-04T07:37:52;98537.00;;;5.54
68510;BMP180;55512;50.102;19.958;2024-02-04T07:45:05;98519.80;;;5.80
68510;BMP180;55512;50.102;19.958;2024-02-04T07:48:37;98525.00;;;5.80
68510;BMP180;55512;50.102;19.958;2024-02-04T07:51:57;98504.00;;;5.88
68510;BMP180;55512;50.102;19.958;2024-02-04T07:58:30;98517.00;;;6.00
68510;BMP180;55512;50.102;19.958;2024-02-04T08:01:20;98517.60;;;6.02
68510;BMP180;55512;50.102;19.958;2024-02-04T08:04:02;98518.00;;;6.10
68510;BMP180;55512;50.102;19.958;2024-02-04T08:06:54;98546.60;;;6.10
68510;BMP180;55512;50.102;19.958;2024-02-04T08:09:33;98533.20;;;6.20
68510;BMP180;55512;50.102;19.958;2024-02-04T08:12:27;98523.60;;;6.30
68510;BMP180;55512;50.102;19.958;2024-02-04T08:15:24;98526.20;;;6.36
68510;BMP180;55512;50.102;19.958;2024-02-04T08:18:18;98529.40;;;6.40
68510;BMP180;55512;50.102;19.958;2024-02-04T08:21:24;98535.00;;;6.42
68510;BMP180;55512;50.102;19.958;2024-02-04T08:24:05;98533.60;;;6.40
68510;BMP180;55512;50.102;19.958;2024-02-04T08:27:09;98549.60;;;6.40
68510;BMP180;55512;50.102;19.958;2024-02-04T08:29:42;98559.20;;;6.40
68510;BMP180;55512;50.102;19.958;2024-02-04T08:32:19;98536.20;;;6.40
68510;BMP180;55512;50.102;19.958;2024-02-04T08:35:05;98557.60;;;6.46
68510;BMP180;55512;50.102;19.958;2024-02-04T08:37:34;98541.00;;;6.50
68510;BMP180;55512;50.102;19.958;2024-02-04T08:40:25;98552.00;;;6.50
68510;BMP180;55512;50.102;19.958;2024-02-04T08:50:09;98542.80;;;6.60
68510;BMP180;55512;50.102;19.958;2024-02-04T08:52:53;98554.40;;;6.60
68510;BMP180;55512;50.102;19.958;2024-02-04T08:55:41;98549.40;;;6.60
68510;BMP180;55512;50.102;19.958;2024-02-04T08:58:46;98547.80;;;6.70
68510;BMP180;55512;50.102;19.958;2024-02-04T09:04:31;98548.20;;;6.90
68510;BMP180;55512;50.102;19.958;2024-02-04T09:07:21;98549.00;;;6.90
68510;BMP180;55512;50.102;19.958;2024-02-04T09:10:34;98554.00;;;6.90
68510;BMP180;55512;50.102;19.958;2024-02-04T09:12:59;98553.20;;;6.94
68510;BMP180;55512;50.102;19.958;2024-02-04T09:18:51;98567.20;;;6.90
68510;BMP180;55512;50.102;19.958;2024-02-04T09:21:58;98565.40;;;6.88
68510;BMP180;55512;50.102;19.958;2024-02-04T09:25:07;98573.40;;;6.90
68510;BMP180;55512;50.102;19.958;2024-02-04T09:28:16;98579.20;;;6.90
68510;BMP180;55512;50.102;19.958;2024-02-04T09:34:29;98562.20;;;6.90
68510;BMP180;55512;50.102;19.958;2024-02-04T09:37:14;98588.00;;;7.00
68510;BMP180;55512;50.102;19.958;2024-02-04T09:39:40;98580.60;;;7.08
68510;BMP180;55512;50.102;19.958;2024-02-04T09:42:06;98591.40;;;7.12
68510;BMP180;55512;50.102;19.958;2024-02-04T09:44:33;98596.80;;;7.22
68510;BMP180;55512;50.102;19.958;2024-02-04T09:47:12;98579.20;;;7.42
68510;BMP180;55512;50.102;19.958;2024-02-04T09:49:42;98584.40;;;7.60
68510;BMP180;55512;50.102;19.958;2024-02-04T09:52:53;98573.60;;;7.70
68510;BMP180;55512;50.102;19.958;2024-02-04T09:55:32;98572.40;;;7.68
68510;BMP180;55512;50.102;19.958;2024-02-04T09:58:06;98566.80;;;7.70
68510;BMP180;55512;50.102;19.958;2024-02-04T10:01:01;98566.40;;;7.70
68510;BMP180;55512;50.102;19.958;2024-02-04T10:06:36;98552.80;;;7.66
68510;BMP180;55512;50.102;19.958;2024-02-04T10:09:32;98546.80;;;7.70
68510;BMP180;55512;50.102;19.958;2024-02-04T10:19:03;98564.80;;;7.90
68510;BMP180;55512;50.102;19.958;2024-02-04T10:21:32;98556.60;;;7.90
68510;BMP180;55512;50.102;19.958;2024-02-04T10:27:36;98532.20;;;7.90
68510;BMP180;55512;50.102;19.958;2024-02-04T10:30:39;98549.40;;;7.90
68510;BMP180;55512;50.102;19.958;2024-02-04T10:33:23;98529.00;;;7.82
68510;BMP180;55512;50.102;19.958;2024-02-04T10:43:14;98512.40;;;7.82
68510;BMP180;55512;50.102;19.958;2024-02-04T10:46:05;98510.20;;;7.80
68510;BMP180;55512;50.102;19.958;2024-02-04T10:48:59;98494.00;;;7.70
68510;BMP180;55512;50.102;19.958;2024-02-04T10:51:55;98490.80;;;7.76
68510;BMP180;55512;50.102;19.958;2024-02-04T10:55:15;98500.20;;;7.80
68510;BMP180;55512;50.102;19.958;2024-02-04T10:58:34;98488.00;;;8.00
68510;BMP180;55512;50.102;19.958;2024-02-04T11:01:30;98495.40;;;8.00
68510;BMP180;55512;50.102;19.958;2024-02-04T11:04:06;98479.80;;;8.10
68510;BMP180;55512;50.102;19.958;2024-02-04T11:06:35;98478.60;;;8.20
68510;BMP180;55512;50.102;19.958;2024-02-04T11:09:03;98473.20;;;8.22
68510;BMP180;55512;50.102;19.958;2024-02-04T11:11:45;98456.20;;;8.42
68510;BMP180;55512;50.102;19.958;2024-02-04T11:14:16;98447.00;;;8.70
68510;BMP180;55512;50.102;19.958;2024-02-04T11:27:26;98462.20;;;8.90
68510;BMP180;55512;50.102;19.958;2024-02-04T11:30:34;98450.00;;;9.00
68510;BMP180;55512;50.102;19.958;2024-02-04T11:33:11;98449.20;;;9.20
68510;BMP180;55512;50.102;19.958;2024-02-04T11:35:43;98416.80;;;9.20
68510;BMP180;55512;50.102;19.958;2024-02-04T11:38:47;98434.00;;;9.20
68510;BMP180;55512;50.102;19.958;2024-02-04T11:42:14;98418.20;;;9.20
68510;BMP180;55512;50.102;19.958;2024-02-04T11:45:31;98417.00;;;9.40
68510;BMP180;55512;50.102;19.958;2024-02-04T11:48:13;98421.20;;;9.40
68510;BMP180;55512;50.102;19.958;2024-02-04T11:50:59;98424.40;;;9.32
68510;BMP180;55512;50.102;19.958;2024-02-04T11:57:08;98413.60;;;9.40
68510;BMP180;55512;50.102;19.958;2024-02-04T11:59:52;98407.80;;;9.50
68510;BMP180;55512;50.102;19.958;2024-02-04T12:02:35;98388.60;;;9.50
68510;BMP180;55512;50.102;19.958;2024-02-04T12:09:08;98371.60;;;9.40
68510;BMP180;55512;50.102;19.958;2024-02-04T12:12:00;98358.20;;;9.40
68510;BMP180;55512;50.102;19.958;2024-02-04T12:14:30;98362.40;;;9.48
68510;BMP180;55512;50.102;19.958;2024-02-04T12:17:10;98348.20;;;9.50
68510;BMP180;55512;50.102;19.958;2024-02-04T12:20:05;98345.20;;;9.42
68510;BMP180;55512;50.102;19.958;2024-02-04T12:26:19;98346.20;;;9.16
68510;BMP180;55512;50.102;19.958;2024-02-04T12:28:58;98337.00;;;8.80
68510;BMP180;55512;50.102;19.958;2024-02-04T12:31:59;98316.80;;;8.44
68510;BMP180;55512;50.102;19.958;2024-02-04T12:34:34;98310.00;;;8.20
68510;BMP180;55512;50.102;19.958;2024-02-04T12:37:01;98310.40;;;8.00
68510;BMP180;55512;50.102;19.958;2024-02-04T12:39:29;98314.20;;;7.90
68510;BMP180;55512;50.102;19.958;2024-02-04T12:42:04;98313.20;;;7.90
68510;BMP180;55512;50.102;19.958;2024-02-04T12:44:38;98324.20;;;7.80
68510;BMP180;55512;50.102;19.958;2024-02-04T12:47:07;98314.20;;;7.60
68510;BMP180;55512;50.102;19.958;2024-02-04T12:50:36;98310.20;;;7.30
68510;BMP180;55512;50.102;19.958;2024-02-04T12:53:32;98315.40;;;7.10
68510;BMP180;55512;50.102;19.958;2024-02-04T12:57:05;98321.60;;;6.90
68510;BMP180;55512;50.102;19.958;2024-02-04T13:00:24;98345.20;;;6.70
68510;BMP180;55512;50.102;19.958;2024-02-04T13:03:15;98339.00;;;6.50
68510;BMP180;55512;50.102;19.958;2024-02-04T13:05:43;98343.20;;;6.30
68510;BMP180;55512;50.102;19.958;2024-02-04T13:08:11;98328.00;;;6.20
68510;BMP180;55512;50.102;19.958;2024-02-04T13:11:05;98328.40;;;6.10
68510;BMP180;55512;50.102;19.958;2024-02-04T13:13:30;98322.20;;;6.00
68510;BMP180;55512;50.102;19.958;2024-02-04T13:18:56;98311.40;;;6.00
68510;BMP180;55512;50.102;19.958;2024-02-04T13:21:22;98315.20;;;6.00
68510;BMP180;55512;50.102;19.958;2024-02-04T13:23:54;98312.20;;;5.90
68510;BMP180;55512;50.102;19.958;2024-02-04T13:26:40;98292.80;;;5.98
68510;BMP180;55512;50.102;19.958;2024-02-04T13:29:17;98265.80;;;6.00
68510;BMP180;55512;50.102;19.958;2024-02-04T13:31:45;98257.00;;;6.00
68510;BMP180;55512;50.102;19.958;2024-02-04T13:34:11;98256.40;;;6.10
68510;BMP180;55512;50.102;19.958;2024-02-04T13:36:37;98262.20;;;6.10
68510;BMP180;55512;50.102;19.958;2024-02-04T13:39:17;98277.80;;;6.14
68510;BMP180;55512;50.102;19.958;2024-02-04T13:41:52;98255.40;;;6.20
68510;BMP180;55512;50.102;19.958;2024-02-04T13:44:18;98258.80;;;6.20
68510;BMP180;55512;50.102;19.958;2024-02-04T13:46:49;98264.40;;;6.20
68510;BMP180;55512;50.102;19.958;2024-02-04T13:49:17;98253.40;;;6.20
68510;BMP180;55512;50.102;19.958;2024-02-04T13:51:49;98260.40;;;6.28
68510;BMP180;55512;50.102;19.958;2024-02-04T13:54:15;98271.00;;;6.30
68510;BMP180;55512;50.102;19.958;2024-02-04T13:56:45;98273.60;;;6.30
68510;BMP180;55512;50.102;19.958;2024-02-04T13:59:21;98281.20;;;6.30
68510;BMP180;55512;50.102;19.958;2024-02-04T14:02:02;98284.60;;;6.30
68510;BMP180;55512;50.102;19.958;2024-02-04T14:04:46;98279.80;;;6.28
68510;BMP180;55512;50.102;19.958;2024-02-04T14:07:12;98275.80;;;6.24
68510;BMP180;55512;50.102;19.958;2024-02-04T14:12:43;98264.60;;;6.20
68510;BMP180;55512;50.102;19.958;2024-02-04T14:15:32;98257.20;;;6.30
68510;BMP180;55512;50.102;19.958;2024-02-04T14:18:17;98259.40;;;6.30
68510;BMP180;55512;50.102;19.958;2024-02-04T14:21:48;98251.40;;;6.40
68510;BMP180;55512;50.102;19.958;2024-02-04T14:24:19;98232.00;;;6.50
68510;BMP180;55512;50.102;19.958;2024-02-04T14:27:05;98236.20;;;6.60
68510;BMP180;55512;50.102;19.958;2024-02-04T14:30:10;98213.20;;;6.70
68510;BMP180;55512;50.102;19.958;2024-02-04T14:36:14;98206.20;;;6.64
68510;BMP180;55512;50.102;19.958;2024-02-04T14:38:42;98209.40;;;6.60
68510;BMP180;55512;50.102;19.958;2024-02-04T14:41:08;98208.00;;;6.60
68510;BMP180;55512;50.102;19.958;2024-02-04T14:43:38;98206.60;;;6.50
68510;BMP180;55512;50.102;19.958;2024-02-04T14:49:16;98191.40;;;6.50
68510;BMP180;55512;50.102;19.958;2024-02-04T14:52:12;98180.00;;;6.50
68510;BMP180;55512;50.102;19.958;2024-02-04T14:54:53;98196.20;;;6.44
68510;BMP180;55512;50.102;19.958;2024-02-04T14:57:19;98198.40;;;6.50
68510;BMP180;55512;50.102;19.958;2024-02-04T14:59:48;98204.60;;;6.50
68510;BMP180;55512;50.102;19.958;2024-02-04T15:02:16;98197.00;;;6.50
68510;BMP180;55512;50.102;19.958;2024-02-04T15:04:47;98193.00;;;6.50
68510;BMP180;55512;50.102;19.958;2024-02-04T15:07:18;98196.80;;;6.50
68510;BMP180;55512;50.102;19.958;2024-02-04T15:10:56;98197.60;;;6.50
68510;BMP180;55512;50.102;19.958;2024-02-04T15:16:02;98190.40;;;6.50
68510;BMP180;55512;50.102;19.958;2024-02-04T15:18:29;98184.60;;;6.50
68510;BMP180;55512;50.102;19.958;2024-02-04T15:21:02;98178.40;;;6.50
68510;BMP180;55512;50.102;19.958;2024-02-04T15:23:37;98163.00;;;6.40
68510;BMP180;55512;50.102;19.958;2024-02-04T15:26:07;98168.00;;;6.40
68510;BMP180;55512;50.102;19.958;2024-02-04T15:28:46;98154.60;;;6.30
68510;BMP180;55512;50.102;19.958;2024-02-04T15:31:23;98157.80;;;6.30
68510;BMP180;55512;50.102;19.958;2024-02-04T15:34:23;98156.20;;;6.22
68510;BMP180;55512;50.102;19.958;2024-02-04T15:37:03;98149.60;;;6.22
68510;BMP180;55512;50.102;19.958;2024-02-04T15:40:10;98142.80;;;6.20
68510;BMP180;55512;50.102;19.958;2024-02-04T15:42:41;98143.40;;;6.30
68510;BMP180;55512;50.102;19.958;2024-02-04T15:45:09;98146.00;;;6.30
68510;BMP180;55512;50.102;19.958;2024-02-04T15:47:47;98141.00;;;6.30
68510;BMP180;55512;50.102;19.958;2024-02-04T15:50:18;98133.60;;;6.30
68510;BMP180;55512;50.102;19.958;2024-02-04T15:52:48;98132.40;;;6.28
68510;BMP180;55512;50.102;19.958;2024-02-04T15:55:16;98128.60;;;6.30
68510;BMP180;55512;50.102;19.958;2024-02-04T15:57:49;98133.80;;;6.30
68510;BMP180;55512;50.102;19.958;2024-02-04T16:00:23;98134.40;;;6.30
68510;BMP180;55512;50.102;19.958;2024-02-04T16:02:53;98140.80;;;6.30
68510;BMP180;55512;50.102;19.958;2024-02-04T16:05:23;98136.40;;;6.30
68510;BMP180;55512;50.102;19.958;2024-02-04T16:07:58;98128.20;;;6.30
68510;BMP180;55512;50.102;19.958;2024-02-04T16:10:24;98124.40;;;6.30
68510;BMP180;55512;50.102;19.958;2024-02-04T16:13:05;98121.00;;;6.38
68510;BMP180;55512;50.102;19.958;2024-02-04T16:15:38;98115.20;;;6.40
68510;BMP180;55512;50.102;19.958;2024-02-04T16:18:31;98117.60;;;6.40
68510;BMP180;55512;50.102;19.958;2024-02-04T16:21:00;98112.20;;;6.44
68510;BMP180;55512;50.102;19.958;2024-02-04T16:23:47;98120.60;;;6.60
68510;BMP180;55512;50.102;19.958;2024-02-04T16:26:27;98121.20;;;6.60
68510;BMP180;55512;50.102;19.958;2024-02-04T16:28:59;98131.40;;;6.56
68510;BMP180;55512;50.102;19.958;2024-02-04T16:32:10;98115.80;;;6.50
68510;BMP180;55512;50.102;19.958;2024-02-04T16:34:22;98118.60;;;6.40
68510;BMP180;55512;50.102;19.958;2024-02-04T16:36:51;98111.40;;;6.40
68510;BMP180;55512;50.102;19.958;2024-02-04T16:39:16;98111.80;;;6.30
68510;BMP180;55512;50.102;19.958;2024-02-04T16:41:47;98109.80;;;6.40
68510;BMP180;55512;50.102;19.958;2024-02-04T16:44:13;98117.80;;;6.50
68510;BMP180;55512;50.102;19.958;2024-02-04T16:47:01;98114.60;;;6.50
68510;BMP180;55512;50.102;19.958;2024-02-04T16:50:20;98094.80;;;6.50
68510;BMP180;55512;50.102;19.958;2024-02-04T16:52:55;98092.20;;;6.50
68510;BMP180;55512;50.102;19.958;2024-02-04T16:55:21;98093.60;;;6.50
68510;BMP180;55512;50.102;19.958;2024-02-04T16:58:08;98066.00;;;6.50
68510;BMP180;55512;50.102;19.958;2024-02-04T17:00:36;98093.20;;;6.50
68510;BMP180;55512;50.102;19.958;2024-02-04T17:03:16;98104.60;;;6.50
68510;BMP180;55512;50.102;19.958;2024-02-04T17:05:51;98098.00;;;6.50
68510;BMP180;55512;50.102;19.958;2024-02-04T17:08:36;98092.60;;;6.50
68510;BMP180;55512;50.102;19.958;2024-02-04T17:11:45;98078.80;;;6.50
68510;BMP180;55512;50.102;19.958;2024-02-04T17:14:33;98067.00;;;6.44
68510;BMP180;55512;50.102;19.958;2024-02-04T17:17:20;98071.60;;;6.50
68510;BMP180;55512;50.102;19.958;2024-02-04T17:20:13;98065.80;;;6.54
68510;BMP180;55512;50.102;19.958;2024-02-04T17:25:45;98068.00;;;6.60
68510;BMP180;55512;50.102;19.958;2024-02-04T17:31:41;98056.00;;;6.70
68510;BMP180;55512;50.102;19.958;2024-02-04T17:34:39;98055.80;;;6.70
68510;BMP180;55512;50.102;19.958;2024-02-04T17:37:14;98058.00;;;6.70
68510;BMP180;55512;50.102;19.958;2024-02-04T17:45:40;98082.40;;;6.80
68510;BMP180;55512;50.102;19.958;2024-02-04T17:48:12;98061.60;;;6.90
68510;BMP180;55512;50.102;19.958;2024-02-04T17:57:02;98079.60;;;7.10
68510;BMP180;55512;50.102;19.958;2024-02-04T17:59:54;98067.20;;;7.10
68510;BMP180;55512;50.102;19.958;2024-02-04T18:02:22;98077.20;;;7.18
68510;BMP180;55512;50.102;19.958;2024-02-04T18:04:59;98073.00;;;7.12
68510;BMP180;55512;50.102;19.958;2024-02-04T18:07:53;98078.00;;;7.20
68510;BMP180;55512;50.102;19.958;2024-02-04T18:10:19;98095.40;;;7.20
68510;BMP180;55512;50.102;19.958;2024-02-04T18:12:44;98059.40;;;7.20
68510;BMP180;55512;50.102;19.958;2024-02-04T18:15:45;98058.40;;;7.18
68510;BMP180;55512;50.102;19.958;2024-02-04T18:18:33;98077.80;;;7.20
68510;BMP180;55512;50.102;19.958;2024-02-04T18:21:40;98070.40;;;7.10
68510;BMP180;55512;50.102;19.958;2024-02-04T18:24:21;98077.00;;;7.10
68510;BMP180;55512;50.102;19.958;2024-02-04T18:27:18;98065.00;;;7.20
68510;BMP180;55512;50.102;19.958;2024-02-04T18:29:59;98064.60;;;7.10
68510;BMP180;55512;50.102;19.958;2024-02-04T18:32:44;98082.00;;;7.16
68510;BMP180;55512;50.102;19.958;2024-02-04T18:35:44;98066.60;;;7.12
68510;BMP180;55512;50.102;19.958;2024-02-04T18:38:10;98074.40;;;7.20
68510;BMP180;55512;50.102;19.958;2024-02-04T18:41:04;98077.60;;;7.20
68510;BMP180;55512;50.102;19.958;2024-02-04T18:43:34;98078.40;;;7.26
68510;BMP180;55512;50.102;19.958;2024-02-04T18:46:05;98079.20;;;7.30
68510;BMP180;55512;50.102;19.958;2024-02-04T18:48:49;98085.20;;;7.22
68510;BMP180;55512;50.102;19.958;2024-02-04T18:51:45;98094.60;;;7.22
68510;BMP180;55512;50.102;19.958;2024-02-04T18:54:34;98082.00;;;7.40
68510;BMP180;55512;50.102;19.958;2024-02-04T18:57:54;98103.20;;;7.40
68510;BMP180;55512;50.102;19.958;2024-02-04T19:01:09;98106.80;;;7.40
68510;BMP180;55512;50.102;19.958;2024-02-04T19:04:09;98123.40;;;7.46
68510;BMP180;55512;50.102;19.958;2024-02-04T19:06:46;98105.00;;;7.50
68510;BMP180;55512;50.102;19.958;2024-02-04T19:09:15;98125.00;;;7.50
68510;BMP180;55512;50.102;19.958;2024-02-04T19:11:44;98115.20;;;7.56
68510;BMP180;55512;50.102;19.958;2024-02-04T19:14:13;98113.80;;;7.60
68510;BMP180;55512;50.102;19.958;2024-02-04T19:16:39;98125.80;;;7.60
68510;BMP180;55512;50.102;19.958;2024-02-04T19:19:04;98127.00;;;7.60
68510;BMP180;55512;50.102;19.958;2024-02-04T19:21:30;98125.00;;;7.60
68510;BMP180;55512;50.102;19.958;2024-02-04T19:24:15;98118.00;;;7.60
68510;BMP180;55512;50.102;19.958;2024-02-04T19:26:41;98111.20;;;7.60
68510;BMP180;55512;50.102;19.958;2024-02-04T19:29:07;98129.80;;;7.60
68510;BMP180;55512;50.102;19.958;2024-02-04T19:31:32;98110.60;;;7.64
68510;BMP180;55512;50.102;19.958;2024-02-04T19:33:59;98110.80;;;7.60
68510;BMP180;55512;50.102;19.958;2024-02-04T19:36:24;98110.40;;;7.58
68510;BMP180;55512;50.102;19.958;2024-02-04T19:41:32;98136.40;;;7.50
68510;BMP180;55512;50.102;19.958;2024-02-04T19:45:10;98121.40;;;7.40
68510;BMP180;55512;50.102;19.958;2024-02-04T19:47:59;98118.80;;;7.06
68510;BMP180;55512;50.102;19.958;2024-02-04T19:50:52;98117.40;;;6.90
68510;BMP180;55512;50.102;19.958;2024-02-04T19:53:35;98119.40;;;6.90
68510;BMP180;55512;50.102;19.958;2024-02-04T19:56:31;98120.80;;;6.90
68510;BMP180;55512;50.102;19.958;2024-02-04T19:59:13;98112.20;;;6.82
68510;BMP180;55512;50.102;19.958;2024-02-04T20:05:07;98099.20;;;6.90
68510;BMP180;55512;50.102;19.958;2024-02-04T20:08:41;98103.00;;;6.90
68510;BMP180;55512;50.102;19.958;2024-02-04T20:12:23;98095.60;;;7.00
68510;BMP180;55512;50.102;19.958;2024-02-04T20:14:57;98093.60;;;7.00
68510;BMP180;55512;50.102;19.958;2024-02-04T20:18:08;98097.20;;;7.04
68510;BMP180;55512;50.102;19.958;2024-02-04T20:25:17;98110.60;;;7.18
68510;BMP180;55512;50.102;19.958;2024-02-04T20:27:58;98092.40;;;7.20
68510;BMP180;55512;50.102;19.958;2024-02-04T20:31:16;98103.40;;;7.20
68510;BMP180;55512;50.102;19.958;2024-02-04T20:37:30;98088.20;;;7.20
68510;BMP180;55512;50.102;19.958;2024-02-04T20:40:47;98086.20;;;7.20
68510;BMP180;55512;50.102;19.958;2024-02-04T20:44:50;98102.40;;;7.20
68510;BMP180;55512;50.102;19.958;2024-02-04T20:47:36;98088.60;;;7.24
68510;BMP180;55512;50.102;19.958;2024-02-04T20:53:41;98102.00;;;6.50
68510;BMP180;55512;50.102;19.958;2024-02-04T20:56:07;98100.60;;;6.10
68510;BMP180;55512;50.102;19.958;2024-02-04T20:58:34;98114.00;;;5.90